createdAt,value
2017-12-05T00:01:57.217Z,7.45
2017-12-05T00:04:24.629Z,7.45
2017-12-05T00:06:52.021Z,7.47
2017-12-05T00:09:19.447Z,7.46
2017-12-05T00:11:46.837Z,7.46
2017-12-05T00:14:14.228Z,7.41
2017-12-05T00:16:41.626Z,7.35
2017-12-05T00:19:09.024Z,7.28
2017-12-05T00:21:36.423Z,7.16
2017-12-05T00:24:03.814Z,7.25
2017-12-05T00:26:31.219Z,7.10
2017-12-05T00:28:58.632Z,7.02
2017-12-05T00:31:26.032Z,7.07
2017-12-05T00:33:53.438Z,7.09
2017-12-05T00:36:20.830Z,7.07
2017-12-05T00:38:48.246Z,7.10
2017-12-05T00:41:15.655Z,7.09
2017-12-05T00:43:43.070Z,7.10
2017-12-05T00:46:10.462Z,7.16
2017-12-05T00:48:37.854Z,7.17
2017-12-05T00:51:05.273Z,7.16
2017-12-05T00:53:32.708Z,7.23
2017-12-05T00:56:00.094Z,7.28
2017-12-05T00:58:27.487Z,7.25
2017-12-05T01:00:54.901Z,7.25
2017-12-05T01:03:22.296Z,7.25
2017-12-05T01:05:49.713Z,7.25
2017-12-05T01:08:17.149Z,7.28
2017-12-05T01:10:44.535Z,7.32
2017-12-05T01:13:11.930Z,7.30
2017-12-05T01:15:39.354Z,7.33
2017-12-05T01:18:06.737Z,7.34
2017-12-05T01:20:34.170Z,7.25
2017-12-05T01:23:01.579Z,7.32
2017-12-05T01:25:28.975Z,7.31
2017-12-05T01:27:56.372Z,7.34
2017-12-05T01:30:23.774Z,7.35
2017-12-05T01:32:51.178Z,7.35
2017-12-05T01:35:18.590Z,7.34
2017-12-05T01:37:46.013Z,7.29
2017-12-05T01:40:13.442Z,7.35
2017-12-05T01:42:40.830Z,7.30
2017-12-05T01:45:08.217Z,7.35
2017-12-05T01:47:35.618Z,7.22
2017-12-05T01:50:03.056Z,7.19
2017-12-05T01:52:30.436Z,7.26
2017-12-05T01:54:57.839Z,7.16
2017-12-05T01:57:25.310Z,7.15
2017-12-05T01:59:52.690Z,7.13
2017-12-05T02:02:20.090Z,7.18
2017-12-05T02:04:47.524Z,7.24
2017-12-05T02:07:14.941Z,7.24
2017-12-05T02:09:42.307Z,7.27
2017-12-05T02:12:09.706Z,7.14
2017-12-05T02:14:37.098Z,6.98
2017-12-05T02:17:04.511Z,7.02
2017-12-05T02:19:31.902Z,6.94
2017-12-05T02:21:59.318Z,7.05
2017-12-05T02:24:26.731Z,7.03
2017-12-05T02:26:54.114Z,7.01
2017-12-05T02:29:21.605Z,7.06
2017-12-05T02:31:48.951Z,7.15
2017-12-05T02:34:16.346Z,7.15
2017-12-05T02:36:43.761Z,7.14
2017-12-05T02:39:11.174Z,7.13
2017-12-05T02:41:38.582Z,7.22
2017-12-05T02:44:05.973Z,7.22
2017-12-05T02:46:33.376Z,7.21
2017-12-05T02:49:00.763Z,7.14
2017-12-05T02:51:28.172Z,7.20
2017-12-05T02:53:55.560Z,7.23
2017-12-05T02:56:22.951Z,7.18
2017-12-05T02:58:50.339Z,7.17
2017-12-05T03:01:17.754Z,7.22
2017-12-05T03:03:45.194Z,7.30
2017-12-05T03:06:12.578Z,7.28
2017-12-05T03:08:39.978Z,7.28
2017-12-05T03:11:07.378Z,7.07
2017-12-05T03:13:34.789Z,7.23
2017-12-05T03:16:02.194Z,7.23
2017-12-05T03:18:29.595Z,7.19
2017-12-05T03:20:57.039Z,7.19
2017-12-05T03:23:24.447Z,7.25
2017-12-05T03:25:51.842Z,7.18
2017-12-05T03:28:19.288Z,7.18
2017-12-05T03:30:46.667Z,7.28
2017-12-05T03:33:14.092Z,7.30
2017-12-05T03:35:41.486Z,7.30
2017-12-05T03:38:08.886Z,7.32
2017-12-05T03:40:36.305Z,7.31
2017-12-05T03:43:03.718Z,7.31
2017-12-05T03:45:31.151Z,7.33
2017-12-05T03:47:58.546Z,7.33
2017-12-05T03:50:25.946Z,7.31
2017-12-05T03:52:53.350Z,7.29
2017-12-05T03:55:20.733Z,7.31
2017-12-05T03:57:48.147Z,7.29
2017-12-05T04:00:15.558Z,7.29
2017-12-05T04:02:42.946Z,7.24
2017-12-05T04:05:10.354Z,7.27
2017-12-05T04:07:37.774Z,7.26
2017-12-05T04:10:05.189Z,7.24
2017-12-05T04:12:32.574Z,7.28
2017-12-05T04:14:59.976Z,7.28
2017-12-05T04:17:27.379Z,7.26
2017-12-05T04:19:54.784Z,7.24
2017-12-05T04:22:22.174Z,7.25
2017-12-05T04:24:49.580Z,7.22
2017-12-05T04:27:16.971Z,7.24
2017-12-05T04:29:44.405Z,7.22
2017-12-05T04:32:11.803Z,7.19
2017-12-05T04:34:39.204Z,7.23
2017-12-05T04:37:06.614Z,7.20
2017-12-05T04:39:34.014Z,7.20
2017-12-05T04:42:01.410Z,7.24
2017-12-05T04:44:28.802Z,7.21
2017-12-05T04:46:56.202Z,7.19
2017-12-05T04:49:23.610Z,7.25
2017-12-05T04:51:51.022Z,7.23
2017-12-05T04:54:18.426Z,7.23
2017-12-05T04:56:45.826Z,7.28
2017-12-05T04:59:13.251Z,7.29
2017-12-05T05:01:40.626Z,7.28
2017-12-05T05:04:08.030Z,7.27
2017-12-05T05:06:35.418Z,7.31
2017-12-05T05:09:02.818Z,7.25
2017-12-05T05:11:30.222Z,7.26
2017-12-05T05:13:57.606Z,7.23
2017-12-05T05:16:25.004Z,7.25
2017-12-05T05:18:52.394Z,7.23
2017-12-05T05:21:19.796Z,7.17
2017-12-05T05:23:47.200Z,7.21
2017-12-05T05:26:14.622Z,7.17
2017-12-05T05:28:42.014Z,7.17
2017-12-05T05:31:09.459Z,7.22
2017-12-05T05:33:36.856Z,7.15
2017-12-05T05:36:04.249Z,7.12
2017-12-05T05:38:31.655Z,7.10
2017-12-05T05:40:59.059Z,7.12
2017-12-05T05:43:26.487Z,7.08
2017-12-05T05:45:53.892Z,7.12
2017-12-05T05:48:21.294Z,7.13
2017-12-05T05:50:48.686Z,7.13
2017-12-05T05:53:16.074Z,7.12
2017-12-05T05:55:43.522Z,7.18
2017-12-05T05:58:10.918Z,7.18
2017-12-05T06:00:38.321Z,7.23
2017-12-05T06:03:05.706Z,7.18
2017-12-05T06:05:33.111Z,7.23
2017-12-05T06:08:00.502Z,7.23
2017-12-05T06:10:27.907Z,7.23
2017-12-05T06:12:55.301Z,7.25
2017-12-05T06:15:22.693Z,7.21
2017-12-05T06:17:50.090Z,7.24
2017-12-05T06:20:17.491Z,7.21
2017-12-05T06:22:44.950Z,7.22
2017-12-05T06:25:12.362Z,7.23
2017-12-05T06:27:39.763Z,7.22
2017-12-05T06:30:07.158Z,7.26
2017-12-05T06:32:34.602Z,7.25
2017-12-05T06:35:01.986Z,7.27
2017-12-05T06:37:29.424Z,7.30
2017-12-05T06:39:56.870Z,7.29
2017-12-05T06:42:24.278Z,7.42
2017-12-05T06:44:51.713Z,7.40
2017-12-05T06:47:19.150Z,7.35
2017-12-05T06:49:46.566Z,7.40
2017-12-05T06:52:13.977Z,7.38
2017-12-05T06:54:41.378Z,7.39
2017-12-05T06:57:08.766Z,7.38
2017-12-05T06:59:36.231Z,7.43
2017-12-05T07:02:03.646Z,7.36
2017-12-05T07:04:31.038Z,7.42
2017-12-05T07:06:58.438Z,7.47
2017-12-05T07:09:25.845Z,7.44
2017-12-05T07:11:53.242Z,7.42
2017-12-05T07:14:20.634Z,7.37
2017-12-05T07:16:48.062Z,7.36
2017-12-05T07:19:15.454Z,7.37
2017-12-05T07:21:42.859Z,7.33
2017-12-05T07:24:10.275Z,7.34
2017-12-05T07:26:37.674Z,7.32
2017-12-05T07:29:05.079Z,7.26
2017-12-05T07:31:32.506Z,7.40
2017-12-05T07:33:59.918Z,7.37
2017-12-05T07:36:27.318Z,7.35
2017-12-05T07:38:54.745Z,7.43
2017-12-05T07:41:22.154Z,7.48
2017-12-05T07:43:49.987Z,7.49
2017-12-05T07:46:17.355Z,7.51
2017-12-05T07:48:44.750Z,7.53
2017-12-05T07:51:12.150Z,7.56
2017-12-05T07:53:39.571Z,7.59
2017-12-05T07:56:06.957Z,7.63
2017-12-05T07:58:34.360Z,7.63
2017-12-05T08:01:01.758Z,7.66
2017-12-05T08:03:29.180Z,7.65
2017-12-05T08:05:56.589Z,7.65
2017-12-05T08:08:24.009Z,7.60
2017-12-05T08:10:51.468Z,7.61
2017-12-05T08:13:18.802Z,7.61
2017-12-05T08:15:46.206Z,7.60
2017-12-05T08:18:13.604Z,7.54
2017-12-05T08:20:41.015Z,7.57
2017-12-05T08:23:08.410Z,7.50
2017-12-05T08:25:35.854Z,7.49
2017-12-05T08:28:03.263Z,7.52
2017-12-05T08:30:30.653Z,7.50
2017-12-05T08:32:58.097Z,7.41
2017-12-05T08:35:25.487Z,7.47
2017-12-05T08:37:52.883Z,7.53
2017-12-05T08:40:20.286Z,7.54
2017-12-05T08:42:47.685Z,7.38
2017-12-05T08:45:15.106Z,7.52
2017-12-05T08:47:42.501Z,7.52
2017-12-05T08:50:09.895Z,7.41
2017-12-05T08:52:37.283Z,7.36
2017-12-05T08:55:04.686Z,7.33
2017-12-05T08:57:32.079Z,7.25
2017-12-05T08:59:59.471Z,7.26
2017-12-05T09:02:26.890Z,7.30
2017-12-05T09:04:54.294Z,7.39
2017-12-05T09:07:21.686Z,7.35
2017-12-05T09:09:49.078Z,7.39
2017-12-05T09:12:16.492Z,7.35
2017-12-05T09:14:43.879Z,7.32
2017-12-05T09:17:11.319Z,7.35
2017-12-05T09:19:38.718Z,7.44
2017-12-05T09:22:06.109Z,7.47
2017-12-05T09:24:33.550Z,7.46
2017-12-05T09:27:00.944Z,7.46
2017-12-05T09:29:28.346Z,7.48
2017-12-05T09:31:55.738Z,7.53
2017-12-05T09:34:23.126Z,7.51
2017-12-05T09:36:50.534Z,7.57
2017-12-05T09:39:17.932Z,7.61
2017-12-05T09:41:45.327Z,7.64
2017-12-05T09:44:12.717Z,7.67
2017-12-05T09:46:40.178Z,7.65
2017-12-05T09:49:07.583Z,7.61
2017-12-05T09:51:34.970Z,7.67
2017-12-05T09:54:02.380Z,7.67
2017-12-05T09:56:29.777Z,7.70
2017-12-05T09:58:57.166Z,7.75
2017-12-05T10:01:24.559Z,7.77
2017-12-05T10:03:51.962Z,7.72
2017-12-05T10:06:19.352Z,7.81
2017-12-05T10:08:46.739Z,7.88
2017-12-05T10:11:14.142Z,7.93
2017-12-05T10:13:41.547Z,7.94
2017-12-05T10:16:08.941Z,7.95
2017-12-05T10:18:36.334Z,7.92
2017-12-05T10:21:03.733Z,7.90
2017-12-05T10:23:31.127Z,7.92
2017-12-05T10:25:58.522Z,7.94
2017-12-05T10:28:25.922Z,7.99
2017-12-05T10:30:53.314Z,7.92
2017-12-05T10:33:20.717Z,7.94
2017-12-05T10:35:48.110Z,7.98
2017-12-05T10:38:15.516Z,8.04
2017-12-05T10:40:42.902Z,8.03
2017-12-05T10:43:10.309Z,8.00
2017-12-05T10:45:37.725Z,8.03
2017-12-05T10:48:05.134Z,7.95
2017-12-05T10:50:32.554Z,8.03
2017-12-05T10:52:59.960Z,8.05
2017-12-05T10:55:27.392Z,8.10
2017-12-05T10:57:54.794Z,8.13
2017-12-05T11:00:22.200Z,8.17
2017-12-05T11:02:49.615Z,8.24
2017-12-05T11:05:17.026Z,8.25
2017-12-05T11:07:44.437Z,8.10
2017-12-05T11:10:11.848Z,8.14
2017-12-05T11:12:39.257Z,8.21
2017-12-05T11:15:06.662Z,8.14
2017-12-05T11:17:34.085Z,8.16
2017-12-05T11:20:01.506Z,8.12
2017-12-05T11:22:28.921Z,8.18
2017-12-05T11:24:56.336Z,8.23
2017-12-05T11:27:23.737Z,8.25
2017-12-05T11:29:51.157Z,8.25
2017-12-05T11:32:19.261Z,8.26
2017-12-05T11:34:46.669Z,8.21
2017-12-05T11:37:14.086Z,8.24
2017-12-05T11:39:41.490Z,8.23
2017-12-05T11:42:08.907Z,8.29
2017-12-05T11:44:36.313Z,8.24
2017-12-05T11:47:03.745Z,8.24
2017-12-05T11:49:31.157Z,8.27
2017-12-05T11:51:58.569Z,8.28
2017-12-05T11:54:25.986Z,8.27
2017-12-05T11:56:53.389Z,8.30
2017-12-05T11:59:20.804Z,8.34
2017-12-05T12:01:48.213Z,8.40
2017-12-05T12:04:15.640Z,8.48
2017-12-05T12:06:43.049Z,8.50
2017-12-05T12:09:10.453Z,8.55
2017-12-05T12:11:38.637Z,8.51
2017-12-05T12:14:06.048Z,8.52
2017-12-05T12:16:33.463Z,8.42
2017-12-05T12:19:00.867Z,8.29
2017-12-05T12:21:28.285Z,8.38
2017-12-05T12:23:55.698Z,8.39
2017-12-05T12:26:23.106Z,8.39
2017-12-05T12:28:50.522Z,8.44
2017-12-05T12:31:17.944Z,8.43
2017-12-05T12:33:45.345Z,8.43
2017-12-05T12:36:12.855Z,8.41
2017-12-05T12:38:40.252Z,8.46
2017-12-05T12:41:07.670Z,8.46
2017-12-05T12:43:35.075Z,8.41
2017-12-05T12:46:02.493Z,8.29
2017-12-05T12:48:29.894Z,8.38
2017-12-05T12:50:57.298Z,8.43
2017-12-05T12:53:24.710Z,8.40
2017-12-05T12:55:52.114Z,8.37
2017-12-05T12:58:19.523Z,8.39
2017-12-05T13:00:46.930Z,8.33
2017-12-05T13:03:14.345Z,8.27
2017-12-05T13:05:41.760Z,8.18
2017-12-05T13:08:09.164Z,8.34
2017-12-05T13:10:36.586Z,8.25
2017-12-05T13:13:03.997Z,8.30
2017-12-05T13:15:31.419Z,8.32
2017-12-05T13:17:58.833Z,8.36
2017-12-05T13:20:26.238Z,8.35
2017-12-05T13:22:54.609Z,8.34
2017-12-05T13:25:22.021Z,8.40
2017-12-05T13:27:49.429Z,8.38
2017-12-05T13:30:16.865Z,8.29
2017-12-05T13:32:44.273Z,8.44
2017-12-05T13:35:11.689Z,8.33
2017-12-05T13:37:39.093Z,8.36
2017-12-05T13:40:06.534Z,8.41
2017-12-05T13:42:33.942Z,8.35
2017-12-05T13:45:01.350Z,8.45
2017-12-05T13:47:29.774Z,8.42
2017-12-05T13:49:57.194Z,8.47
2017-12-05T13:52:24.608Z,8.36
2017-12-05T13:54:52.013Z,8.34
2017-12-05T13:57:19.441Z,8.34
2017-12-05T13:59:47.131Z,8.39
2017-12-05T14:02:14.530Z,8.37
2017-12-05T14:04:41.952Z,8.30
2017-12-05T14:07:09.358Z,8.25
2017-12-05T14:09:36.770Z,8.26
2017-12-05T14:12:04.172Z,8.36
2017-12-05T14:14:31.603Z,8.38
2017-12-05T14:16:59.021Z,8.27
2017-12-05T14:19:26.425Z,8.39
2017-12-05T14:21:53.834Z,8.40
2017-12-05T14:24:21.241Z,8.34
2017-12-05T14:26:48.658Z,8.32
2017-12-05T14:29:16.066Z,8.37
2017-12-05T14:31:43.503Z,8.37
2017-12-05T14:34:10.909Z,8.38
2017-12-05T14:36:38.354Z,8.37
2017-12-05T14:39:05.864Z,8.25
2017-12-05T14:41:33.273Z,8.30
2017-12-05T14:44:00.688Z,8.26
2017-12-05T14:46:28.091Z,8.35
2017-12-05T14:48:55.525Z,8.34
2017-12-05T14:51:22.938Z,8.39
2017-12-05T14:53:50.345Z,8.33
2017-12-05T14:56:17.757Z,8.40
2017-12-05T14:58:45.170Z,8.40
2017-12-05T15:01:12.585Z,8.44
2017-12-05T15:03:39.996Z,8.44
2017-12-05T15:06:07.418Z,8.51
2017-12-05T15:08:34.844Z,8.47
2017-12-05T15:11:02.248Z,8.51
2017-12-05T15:13:29.670Z,8.38
2017-12-05T15:15:57.073Z,8.49
2017-12-05T15:18:24.491Z,8.50
2017-12-05T15:20:51.896Z,8.44
2017-12-05T15:23:19.325Z,8.36
2017-12-05T15:25:52.729Z,8.26
2017-12-05T15:28:20.157Z,8.34
2017-12-05T15:30:47.573Z,8.19
2017-12-05T15:33:14.978Z,8.26
2017-12-05T15:35:42.393Z,8.32
2017-12-05T15:38:09.798Z,8.32
2017-12-05T15:40:37.205Z,8.33
2017-12-05T15:43:04.611Z,8.40
2017-12-05T15:45:32.037Z,8.45
2017-12-05T15:47:59.442Z,8.42
2017-12-05T15:50:26.850Z,8.45
2017-12-05T15:52:54.303Z,8.41
2017-12-05T15:55:21.709Z,8.40
2017-12-05T15:57:49.125Z,8.44
2017-12-05T16:00:16.541Z,8.40
2017-12-05T16:02:43.961Z,8.31
2017-12-05T16:05:11.381Z,8.32
2017-12-05T16:07:38.833Z,8.24
2017-12-05T16:10:06.250Z,8.29
2017-12-05T16:12:33.650Z,8.31
2017-12-05T16:15:01.065Z,8.32
2017-12-05T16:17:28.480Z,8.36
2017-12-05T16:19:55.924Z,8.38
2017-12-05T16:22:23.383Z,8.44
2017-12-05T16:24:50.810Z,8.37
2017-12-05T16:27:18.231Z,8.40
2017-12-05T16:29:45.692Z,8.45
2017-12-05T16:32:13.175Z,8.47
2017-12-05T16:34:40.646Z,8.51
2017-12-05T16:37:08.134Z,8.51
2017-12-05T16:39:35.621Z,8.46
2017-12-05T16:42:03.072Z,8.39
2017-12-05T16:44:30.554Z,8.44
2017-12-05T16:46:58.031Z,8.48
2017-12-05T16:49:25.484Z,8.46
2017-12-05T16:51:52.939Z,8.46
2017-12-05T16:54:20.411Z,8.51
2017-12-05T16:56:47.870Z,8.49
2017-12-05T16:59:15.342Z,8.46
2017-12-05T17:01:42.775Z,8.41
2017-12-05T17:04:10.229Z,8.46
2017-12-05T17:06:37.655Z,8.49
2017-12-05T17:09:05.064Z,8.48
2017-12-05T17:11:36.503Z,8.54
2017-12-05T17:14:03.930Z,8.52
2017-12-05T17:16:31.387Z,8.49
2017-12-05T17:18:58.842Z,8.43
2017-12-05T17:21:42.767Z,8.40
2017-12-05T17:24:11.169Z,8.38
2017-12-05T17:26:38.580Z,8.38
2017-12-05T17:29:06.017Z,8.42
2017-12-05T17:31:33.445Z,8.41
2017-12-05T17:34:00.849Z,8.39
2017-12-05T17:36:28.267Z,8.30
2017-12-05T17:38:55.724Z,8.22
2017-12-05T17:41:23.147Z,8.31
2017-12-05T17:43:50.578Z,8.18
2017-12-05T17:46:18.031Z,8.20
2017-12-05T17:48:45.439Z,8.20
2017-12-05T17:51:12.850Z,8.18
2017-12-05T17:53:40.258Z,8.17
2017-12-05T17:56:07.662Z,8.14
2017-12-05T17:58:35.079Z,8.22
2017-12-05T18:01:02.500Z,8.21
2017-12-05T18:03:29.925Z,8.09
2017-12-05T18:05:57.354Z,8.24
2017-12-05T18:08:24.764Z,8.17
2017-12-05T18:10:52.192Z,8.17
2017-12-05T18:13:19.604Z,8.15
2017-12-05T18:15:47.068Z,8.22
2017-12-05T18:18:14.465Z,8.19
2017-12-05T18:20:41.950Z,8.29
2017-12-05T18:23:09.381Z,8.29
2017-12-05T18:25:36.824Z,8.39
2017-12-05T18:28:04.299Z,8.39
2017-12-05T18:30:31.753Z,8.43
2017-12-05T18:32:59.172Z,8.38
2017-12-05T18:35:27.473Z,8.45
2017-12-05T18:37:55.129Z,8.43
2017-12-05T18:40:22.541Z,8.42
2017-12-05T18:42:49.975Z,8.45
2017-12-05T18:45:17.415Z,8.41
2017-12-05T18:47:44.998Z,8.43
2017-12-05T18:50:12.450Z,8.46
2017-12-05T18:52:40.479Z,8.47
2017-12-05T18:55:07.957Z,8.51
2017-12-05T18:57:36.637Z,8.45
2017-12-05T19:00:04.041Z,8.52
2017-12-05T19:02:32.381Z,8.49
2017-12-05T19:04:59.829Z,8.50
2017-12-05T19:07:27.251Z,8.54
2017-12-05T19:09:54.699Z,8.46
2017-12-05T19:12:22.138Z,8.49
2017-12-05T19:14:49.566Z,8.46
2017-12-05T19:17:17.324Z,8.36
2017-12-05T19:19:44.766Z,8.35
2017-12-05T19:22:12.207Z,8.39
2017-12-05T19:24:39.638Z,8.31
2017-12-05T19:27:07.174Z,8.37
2017-12-05T19:29:35.411Z,8.37
2017-12-05T19:32:02.863Z,8.37
2017-12-05T19:34:30.395Z,8.41
2017-12-05T19:36:57.866Z,8.40
2017-12-05T19:39:25.346Z,8.45
2017-12-05T19:41:52.893Z,8.42
2017-12-05T19:44:28.427Z,8.36
2017-12-05T19:46:57.405Z,8.44
2017-12-05T19:49:25.433Z,8.50
2017-12-05T19:51:53.056Z,8.37
2017-12-05T19:54:20.656Z,8.36
2017-12-05T19:56:49.435Z,8.26
2017-12-05T19:59:17.396Z,8.40
2017-12-05T20:01:45.970Z,8.34
2017-12-05T20:04:13.620Z,8.38
2017-12-05T20:06:43.287Z,8.36
2017-12-05T20:09:10.860Z,8.41
2017-12-05T20:11:38.398Z,8.43
2017-12-05T20:14:05.951Z,8.46
2017-12-05T20:16:33.536Z,8.49
2017-12-05T20:19:01.096Z,8.48
2017-12-05T20:21:28.652Z,8.51
2017-12-05T20:23:56.170Z,8.51
2017-12-05T20:26:23.691Z,8.46
2017-12-05T20:28:51.182Z,8.48
2017-12-05T20:31:18.700Z,8.50
2017-12-05T20:33:46.212Z,8.50
2017-12-05T20:36:13.698Z,8.49
2017-12-05T20:38:41.188Z,8.43
2017-12-05T20:41:08.630Z,8.42
2017-12-05T20:43:36.113Z,8.41
2017-12-05T20:46:03.596Z,8.39
2017-12-05T20:48:31.105Z,8.44
2017-12-05T20:50:58.543Z,8.39
2017-12-05T20:53:25.979Z,8.40
2017-12-05T20:55:53.419Z,8.38
2017-12-05T20:58:20.878Z,8.41
2017-12-05T21:00:48.330Z,8.18
2017-12-05T21:03:15.752Z,8.24
2017-12-05T21:05:43.176Z,8.31
2017-12-05T21:08:10.590Z,8.30
2017-12-05T21:10:38.006Z,8.23
2017-12-05T21:13:06.314Z,8.19
2017-12-05T21:15:34.555Z,8.31
2017-12-05T21:18:01.978Z,8.32
2017-12-05T21:20:29.385Z,8.35
2017-12-05T21:22:56.793Z,8.32
2017-12-05T21:25:24.224Z,8.30
2017-12-05T21:27:51.629Z,8.29
2017-12-05T21:30:19.048Z,8.30
2017-12-05T21:32:46.457Z,8.29
2017-12-05T21:35:13.885Z,8.29
2017-12-05T21:37:41.295Z,8.29
2017-12-05T21:40:08.699Z,8.35
2017-12-05T21:42:36.121Z,8.35
2017-12-05T21:45:03.543Z,8.24
2017-12-05T21:47:30.937Z,8.31
2017-12-05T21:49:58.348Z,8.36
2017-12-05T21:52:25.765Z,8.29
2017-12-05T21:54:53.178Z,8.26
2017-12-05T21:57:20.582Z,8.27
2017-12-05T21:59:47.995Z,8.26
2017-12-05T22:02:15.405Z,8.31
2017-12-05T22:04:42.821Z,8.31
2017-12-05T22:07:10.225Z,8.26
2017-12-05T22:09:37.682Z,8.29
2017-12-05T22:12:05.086Z,8.29
2017-12-05T22:14:32.493Z,8.30
2017-12-05T22:16:59.905Z,8.15
2017-12-05T22:19:27.314Z,8.20
2017-12-05T22:21:54.730Z,8.25
2017-12-05T22:24:22.133Z,8.28
2017-12-05T22:26:49.550Z,8.25
2017-12-05T22:29:16.957Z,8.25
2017-12-05T22:31:44.362Z,8.24
2017-12-05T22:34:11.778Z,8.28
2017-12-05T22:36:39.194Z,8.29
2017-12-05T22:39:06.608Z,8.32
2017-12-05T22:41:34.009Z,8.27
2017-12-05T22:44:01.425Z,8.25
2017-12-05T22:46:28.838Z,8.25
2017-12-05T22:48:56.250Z,8.28
2017-12-05T22:51:23.661Z,8.29
2017-12-05T22:53:51.087Z,8.16
2017-12-05T22:56:18.494Z,8.12
2017-12-05T22:58:45.905Z,8.18
2017-12-05T23:01:13.325Z,8.25
2017-12-05T23:03:40.733Z,8.21
2017-12-05T23:06:08.141Z,8.21
2017-12-05T23:08:35.554Z,8.28
2017-12-05T23:11:02.958Z,8.35
2017-12-05T23:13:30.369Z,8.34
2017-12-05T23:15:57.778Z,8.35
2017-12-05T23:18:25.194Z,8.36
2017-12-05T23:20:52.601Z,8.34
2017-12-05T23:23:20.005Z,8.31
2017-12-05T23:25:47.420Z,8.32
2017-12-05T23:28:14.825Z,8.35
2017-12-05T23:30:42.241Z,8.33
2017-12-05T23:33:09.648Z,8.34
2017-12-05T23:35:37.074Z,8.32
2017-12-05T23:38:04.477Z,8.30
2017-12-05T23:40:31.889Z,8.32
2017-12-05T23:42:59.301Z,8.28
2017-12-05T23:45:26.709Z,8.28
2017-12-05T23:47:54.120Z,8.30
2017-12-05T23:50:21.540Z,8.24
2017-12-05T23:52:48.958Z,8.27
2017-12-05T23:55:16.365Z,8.31
2017-12-05T23:57:43.774Z,8.23
